Time;durP1;ratioP1;P1;durP2;ratioP2;P2;SDS_P1;SDS_P2;PMS_P1;PMS_P2;Temp;Humidity;BMP_temperature;BMP_pressure;BME280_temperature;BME280_humidity;BME280_pressure;Samples;Min_cycle;Max_cycle;Signal;HPM_P1;HPM_P2
2021/08/04 00:00:28;0.00;0.00;0.62;0.00;0.00;0.62;2.70;1.80;;;26.70;30.50;;;;;;2265923;61;20358;-54
2021/08/04 00:02:54;0.00;0.00;0.62;0.00;0.00;0.62;2.30;2.10;;;26.70;30.50;;;;;;2264364;61;20421;-56
2021/08/04 00:05:21;0.00;0.00;0.62;0.00;0.00;0.62;2.90;1.90;;;26.70;30.50;;;;;;2265980;61;20576;-56
2021/08/04 00:07:48;0.00;0.00;0.62;0.00;0.00;0.62;2.20;1.50;;;26.70;30.50;;;;;;2265943;61;20718;-56
2021/08/04 00:10:16;0.00;0.00;0.62;0.00;0.00;0.62;2.40;2.20;;;26.70;30.50;;;;;;2264815;61;20385;-53
2021/08/04 00:12:43;0.00;0.00;0.62;0.00;0.00;0.62;2.70;2.10;;;26.70;30.50;;;;;;2265925;61;20358;-51
2021/08/04 00:15:12;0.00;0.00;0.62;0.00;0.00;0.62;2.20;1.60;;;26.70;30.50;;;;;;2265903;61;20382;-56
2021/08/04 00:17:39;0.00;0.00;0.62;0.00;0.00;0.62;2.87;1.77;;;26.70;30.60;;;;;;2264905;61;20567;-56
2021/08/04 00:20:09;0.00;0.00;0.62;0.00;0.00;0.62;2.20;1.80;;;26.70;30.60;;;;;;2265827;61;20588;-57
2021/08/04 00:22:35;0.00;0.00;0.62;0.00;0.00;0.62;1.63;1.47;;;26.70;30.50;;;;;;2265689;61;20694;-50
2021/08/04 00:25:03;0.00;0.00;0.62;0.00;0.00;0.62;1.93;1.60;;;26.70;31.20;;;;;;2264868;61;20883;-55
2021/08/04 00:27:31;0.00;0.00;0.62;0.00;0.00;0.62;2.17;1.93;;;26.70;30.50;;;;;;2265767;61;20370;-56
2021/08/04 00:29:59;0.00;0.00;0.62;0.00;0.00;0.62;2.40;1.70;;;26.70;30.60;;;;;;2265876;61;20587;-56
2021/08/04 00:32:25;0.00;0.00;0.62;0.00;0.00;0.62;2.00;1.73;;;26.70;30.50;;;;;;2264406;61;20361;-54
2021/08/04 00:34:53;0.00;0.00;0.62;0.00;0.00;0.62;1.83;1.50;;;26.70;30.50;;;;;;2265927;61;20386;-56
2021/08/04 00:37:20;0.00;0.00;0.62;0.00;0.00;0.62;1.93;1.80;;;26.80;30.60;;;;;;2265381;61;20378;-54
2021/08/04 00:39:47;0.00;0.00;0.62;0.00;0.00;0.62;2.60;1.53;;;26.80;30.60;;;;;;2264312;61;20571;-56
2021/08/04 00:42:17;0.00;0.00;0.62;0.00;0.00;0.62;2.33;1.57;;;26.80;30.60;;;;;;2265692;61;20354;-53
2021/08/04 00:44:47;0.00;0.00;0.62;0.00;0.00;0.62;1.97;1.70;;;26.70;30.60;;;;;;2265902;61;20348;-56
2021/08/04 00:47:14;0.00;0.00;0.62;0.00;0.00;0.62;1.80;1.50;;;26.80;30.60;;;;;;2264238;61;20393;-55
2021/08/04 00:49:42;0.00;0.00;0.62;0.00;0.00;0.62;1.87;1.50;;;26.80;30.60;;;;;;2265764;61;20468;-57
2021/08/04 00:52:09;0.00;0.00;0.62;0.00;0.00;0.62;2.10;1.73;;;26.80;30.70;;;;;;2265811;61;20350;-54
2021/08/04 00:54:36;0.00;0.00;0.62;0.00;0.00;0.62;1.83;1.63;;;26.80;30.60;;;;;;2264385;61;20604;-51
2021/08/04 00:57:03;0.00;0.00;0.62;0.00;0.00;0.62;2.60;1.83;;;26.80;30.70;;;;;;2265789;61;20582;-57
2021/08/04 00:59:31;0.00;0.00;0.62;0.00;0.00;0.62;2.53;2.10;;;26.80;30.70;;;;;;2265737;61;20356;-55
2021/08/04 01:02:08;0.00;0.00;0.62;0.00;0.00;0.62;1.80;1.50;;;26.80;30.70;;;;;;2264232;61;20721;-55
2021/08/04 01:04:42;0.00;0.00;0.62;0.00;0.00;0.62;1.57;1.30;;;26.80;30.70;;;;;;2265321;61;20744;-52
2021/08/04 01:07:17;0.00;0.00;0.62;0.00;0.00;0.62;3.37;1.50;;;26.80;30.70;;;;;;2265231;61;20456;-52
2021/08/04 01:09:48;0.00;0.00;0.62;0.00;0.00;0.62;2.07;1.70;;;26.80;30.70;;;;;;2264742;61;20529;-53
2021/08/04 01:12:21;0.00;0.00;0.62;0.00;0.00;0.62;1.97;1.70;;;26.80;30.70;;;;;;2265756;61;20342;-56
2021/08/04 01:14:54;0.00;0.00;0.62;0.00;0.00;0.62;2.10;1.87;;;26.80;30.70;;;;;;2265188;61;20385;-53
2021/08/04 01:17:22;0.00;0.00;0.62;0.00;0.00;0.62;3.20;1.67;;;26.80;30.70;;;;;;2265728;61;20369;-57
2021/08/04 01:20:12;0.00;0.00;0.62;0.00;0.00;0.62;1.90;1.33;;;26.80;30.70;;;;;;2266562;61;20404;-57
2021/08/04 01:22:54;0.00;0.00;0.62;0.00;0.00;0.62;2.00;1.73;;;26.80;30.70;;;;;;2266503;61;20361;-57
2021/08/04 01:25:25;0.00;0.00;0.62;0.00;0.00;0.62;2.50;1.97;;;26.80;30.80;;;;;;2266359;61;20356;-57
2021/08/04 01:28:21;0.00;0.00;0.62;0.00;0.00;0.62;1.80;1.57;;;26.80;30.70;;;;;;2266515;61;20373;-54
2021/08/04 01:30:53;0.00;0.00;0.62;0.00;0.00;0.62;1.83;1.63;;;26.80;30.80;;;;;;2266281;61;20362;-57
2021/08/04 01:33:21;0.00;0.00;0.62;0.00;0.00;0.62;1.63;1.50;;;26.80;30.80;;;;;;2266277;61;20379;-51
2021/08/04 01:35:49;0.00;0.00;0.62;0.00;0.00;0.62;1.60;1.50;;;26.80;31.50;;;;;;2266987;61;20381;-55
2021/08/04 01:38:19;0.00;0.00;0.62;0.00;0.00;0.62;1.70;1.30;;;26.80;30.80;;;;;;2266156;61;20373;-57
2021/08/04 01:40:50;0.00;0.00;0.62;0.00;0.00;0.62;1.80;1.40;;;26.80;30.80;;;;;;2266255;61;20467;-57
2021/08/04 01:43:21;0.00;0.00;0.62;0.00;0.00;0.62;2.10;1.40;;;26.80;30.80;;;;;;2266449;61;20614;-53
2021/08/04 01:45:48;0.00;0.00;0.62;0.00;0.00;0.62;2.10;1.60;;;26.80;30.80;;;;;;2266425;61;20565;-51
2021/08/04 01:48:16;0.00;0.00;0.62;0.00;0.00;0.62;2.47;2.03;;;26.80;30.80;;;;;;2266639;61;20377;-58
2021/08/04 01:50:43;0.00;0.00;0.62;0.00;0.00;0.62;2.00;1.53;;;26.80;30.80;;;;;;2266952;61;20399;-50
2021/08/04 01:53:10;0.00;0.00;0.62;0.00;0.00;0.62;2.10;1.73;;;26.80;30.90;;;;;;2265906;61;20362;-58
2021/08/04 01:55:37;0.00;0.00;0.62;0.00;0.00;0.62;2.00;1.50;;;26.80;30.90;;;;;;2266671;61;20385;-56
2021/08/04 01:58:04;0.00;0.00;0.62;0.00;0.00;0.62;3.77;1.73;;;26.80;30.90;;;;;;2266567;61;20450;-55
2021/08/04 02:00:32;0.00;0.00;0.62;0.00;0.00;0.62;2.23;1.77;;;26.80;31.00;;;;;;2262498;61;20357;-56
2021/08/04 02:02:59;0.00;0.00;0.62;0.00;0.00;0.62;3.13;1.90;;;26.80;31.00;;;;;;2266516;61;20358;-52
2021/08/04 02:05:25;0.00;0.00;0.62;0.00;0.00;0.62;2.40;1.80;;;26.80;31.00;;;;;;2267071;61;20354;-56
2021/08/04 02:08:00;0.00;0.00;0.62;0.00;0.00;0.62;1.93;1.53;;;26.80;31.00;;;;;;2266040;61;20380;-55
2021/08/04 02:10:40;0.00;0.00;0.62;0.00;0.00;0.62;2.23;1.73;;;26.80;31.00;;;;;;2266173;61;20670;-53
2021/08/04 02:13:21;0.00;0.00;0.62;0.00;0.00;0.62;1.77;1.37;;;26.80;31.00;;;;;;2266572;61;20705;-55
2021/08/04 02:15:59;0.00;0.00;0.62;0.00;0.00;0.62;1.93;1.43;;;26.80;31.00;;;;;;2265543;61;20707;-56
2021/08/04 02:18:30;0.00;0.00;0.62;0.00;0.00;0.62;2.10;1.70;;;26.80;31.00;;;;;;2266974;61;20358;-52
2021/08/04 02:21:00;0.00;0.00;0.62;0.00;0.00;0.62;2.23;1.77;;;26.80;31.00;;;;;;2266429;61;20678;-54
2021/08/04 02:23:33;0.00;0.00;0.62;0.00;0.00;0.62;1.77;1.67;;;26.80;31.00;;;;;;2265721;61;20928;-51
2021/08/04 02:26:05;0.00;0.00;0.62;0.00;0.00;0.62;2.83;1.83;;;26.80;31.00;;;;;;2266414;61;20369;-56
2021/08/04 02:28:36;0.00;0.00;0.62;0.00;0.00;0.62;3.50;1.90;;;26.80;31.00;;;;;;2266235;61;20354;-56
2021/08/04 02:31:06;0.00;0.00;0.62;0.00;0.00;0.62;2.93;1.90;;;26.80;31.00;;;;;;2265229;61;20623;-54
2021/08/04 02:33:33;0.00;0.00;0.62;0.00;0.00;0.62;2.03;1.80;;;26.80;31.00;;;;;;2266281;61;20398;-58
2021/08/04 02:36:00;0.00;0.00;0.62;0.00;0.00;0.62;1.80;1.50;;;26.80;31.10;;;;;;2265617;61;20812;-56
2021/08/04 02:38:28;0.00;0.00;0.62;0.00;0.00;0.62;2.53;1.60;;;26.80;31.10;;;;;;2264686;61;20385;-56
2021/08/04 02:40:55;0.00;0.00;0.62;0.00;0.00;0.62;2.03;1.70;;;26.80;31.20;;;;;;2266292;61;20358;-52
2021/08/04 02:43:22;0.00;0.00;0.62;0.00;0.00;0.62;2.60;1.90;;;26.80;31.20;;;;;;2266070;61;20350;-54
2021/08/04 02:45:51;0.00;0.00;0.62;0.00;0.00;0.62;1.87;1.60;;;26.80;31.20;;;;;;2264674;61;20350;-56
2021/08/04 02:48:20;0.00;0.00;0.62;0.00;0.00;0.62;1.90;1.60;;;26.80;31.20;;;;;;2266152;61;20384;-58
2021/08/04 02:50:50;0.00;0.00;0.62;0.00;0.00;0.62;1.77;1.50;;;26.80;31.20;;;;;;2265632;61;20357;-56
2021/08/04 02:53:18;0.00;0.00;0.62;0.00;0.00;0.62;2.00;1.50;;;26.80;31.30;;;;;;2265224;61;20345;-56
2021/08/04 02:55:48;0.00;0.00;0.62;0.00;0.00;0.62;2.10;1.77;;;26.80;31.20;;;;;;2266257;61;20381;-56
2021/08/04 02:58:15;0.00;0.00;0.62;0.00;0.00;0.62;1.90;1.60;;;26.80;31.20;;;;;;2266119;61;20370;-57
2021/08/04 03:00:42;0.00;0.00;0.62;0.00;0.00;0.62;1.80;1.63;;;26.80;31.20;;;;;;2264613;61;20362;-50
2021/08/04 03:03:09;0.00;0.00;0.62;0.00;0.00;0.62;2.00;1.67;;;26.80;31.20;;;;;;2265911;61;20357;-55
2021/08/04 03:05:37;0.00;0.00;0.62;0.00;0.00;0.62;1.60;1.40;;;26.80;31.30;;;;;;2266106;61;20445;-57
2021/08/04 03:08:04;0.00;0.00;0.62;0.00;0.00;0.62;2.40;1.70;;;26.80;31.20;;;;;;2264642;61;20743;-53
2021/08/04 03:10:31;0.00;0.00;0.62;0.00;0.00;0.62;2.43;2.07;;;26.80;31.20;;;;;;2266016;61;20363;-56
2021/08/04 03:12:58;0.00;0.00;0.62;0.00;0.00;0.62;2.53;1.87;;;26.80;31.30;;;;;;2266148;61;20691;-55
2021/08/04 03:15:25;0.00;0.00;0.62;0.00;0.00;0.62;1.83;1.63;;;26.80;31.20;;;;;;2264641;61;20381;-52
2021/08/04 03:17:51;0.00;0.00;0.62;0.00;0.00;0.62;1.97;1.70;;;26.80;31.20;;;;;;2266114;61;20370;-58
2021/08/04 03:20:18;0.00;0.00;0.62;0.00;0.00;0.62;2.27;1.50;;;26.80;31.30;;;;;;2265937;61;20354;-57
2021/08/04 03:22:49;0.00;0.00;0.62;0.00;0.00;0.62;2.47;1.90;;;26.80;31.20;;;;;;2264417;61;20366;-55
2021/08/04 03:25:18;0.00;0.00;0.62;0.00;0.00;0.62;1.90;1.60;;;26.80;31.20;;;;;;2266129;61;20362;-53
2021/08/04 03:27:46;0.00;0.00;0.62;0.00;0.00;0.62;2.10;1.90;;;26.80;31.20;;;;;;2266028;61;20412;-57
2021/08/04 03:30:14;0.00;0.00;0.62;0.00;0.00;0.62;2.10;1.87;;;26.80;31.20;;;;;;2264962;61;20358;-56
2021/08/04 03:32:41;0.00;0.00;0.62;0.00;0.00;0.62;4.70;1.27;;;26.80;31.30;;;;;;2266089;61;20354;-57
2021/08/04 03:35:10;0.00;0.00;0.62;0.00;0.00;0.62;2.17;1.60;;;26.80;31.20;;;;;;2266005;61;20499;-54
2021/08/04 03:37:37;0.00;0.00;0.62;0.00;0.00;0.62;2.57;1.80;;;26.80;31.20;;;;;;2264612;61;20749;-57
2021/08/04 03:40:08;0.00;0.00;0.62;0.00;0.00;0.62;3.00;1.73;;;26.80;31.20;;;;;;2265427;61;20358;-52
2021/08/04 03:42:34;0.00;0.00;0.62;0.00;0.00;0.62;1.80;1.60;;;26.80;31.20;;;;;;2265871;61;20682;-53
2021/08/04 03:45:01;0.00;0.00;0.62;0.00;0.00;0.62;1.90;1.53;;;26.80;31.30;;;;;;2265074;61;20346;-56
2021/08/04 03:47:28;0.00;0.00;0.62;0.00;0.00;0.62;2.60;1.73;;;26.80;31.30;;;;;;2265927;61;20480;-51
2021/08/04 03:49:54;0.00;0.00;0.62;0.00;0.00;0.62;2.30;1.73;;;26.80;31.20;;;;;;2266014;61;20588;-55
2021/08/04 03:52:21;0.00;0.00;0.62;0.00;0.00;0.62;2.60;1.73;;;26.80;31.20;;;;;;2265123;61;20350;-54
2021/08/04 03:54:48;0.00;0.00;0.62;0.00;0.00;0.62;1.97;1.50;;;26.80;31.20;;;;;;2265989;61;20378;-53
2021/08/04 03:57:16;0.00;0.00;0.62;0.00;0.00;0.62;3.00;2.07;;;26.80;31.20;;;;;;2265906;61;20419;-53
2021/08/04 03:59:43;0.00;0.00;0.62;0.00;0.00;0.62;2.47;1.67;;;26.80;31.30;;;;;;2265057;61;20358;-58
2021/08/04 04:02:10;0.00;0.00;0.62;0.00;0.00;0.62;2.17;1.87;;;26.80;31.20;;;;;;2265883;61;20358;-55
2021/08/04 04:04:37;0.00;0.00;0.62;0.00;0.00;0.62;2.23;1.83;;;26.80;31.20;;;;;;2265994;61;20354;-53
2021/08/04 04:07:04;0.00;0.00;0.62;0.00;0.00;0.62;2.43;1.70;;;26.80;31.20;;;;;;2264944;61;20377;-55
2021/08/04 04:09:31;0.00;0.00;0.62;0.00;0.00;0.62;2.60;1.70;;;26.80;31.20;;;;;;2265539;61;20700;-57
2021/08/04 04:11:57;0.00;0.00;0.62;0.00;0.00;0.62;1.90;1.63;;;26.80;31.20;;;;;;2265881;61;20357;-54
2021/08/04 04:14:25;0.00;0.00;0.62;0.00;0.00;0.62;2.00;1.60;;;26.80;31.50;;;;;;2264929;61;20374;-58
2021/08/04 04:16:52;0.00;0.00;0.62;0.00;0.00;0.62;2.30;1.83;;;26.90;31.30;;;;;;2265846;61;20388;-52
2021/08/04 04:19:18;0.00;0.00;0.62;0.00;0.00;0.62;2.27;1.63;;;26.90;31.30;;;;;;2265914;61;20353;-58
2021/08/04 04:21:45;0.00;0.00;0.62;0.00;0.00;0.62;2.03;1.70;;;26.80;31.20;;;;;;2264704;61;20358;-56
2021/08/04 04:24:11;0.00;0.00;0.62;0.00;0.00;0.62;1.93;1.40;;;26.90;31.30;;;;;;2265684;61;20572;-55
2021/08/04 04:26:38;0.00;0.00;0.62;0.00;0.00;0.62;1.90;1.60;;;26.80;31.20;;;;;;2265835;61;20370;-55
2021/08/04 04:29:05;0.00;0.00;0.62;0.00;0.00;0.62;2.00;1.63;;;26.80;31.20;;;;;;2264966;61;20355;-58
2021/08/04 04:31:33;0.00;0.00;0.62;0.00;0.00;0.62;2.47;1.87;;;26.80;31.30;;;;;;2265768;61;20381;-52
2021/08/04 04:33:59;0.00;0.00;0.62;0.00;0.00;0.62;2.10;1.60;;;26.80;31.20;;;;;;2265920;61;20695;-54
2021/08/04 04:36:26;0.00;0.00;0.62;0.00;0.00;0.62;2.40;2.00;;;26.80;31.20;;;;;;2264829;61;20390;-61
2021/08/04 04:38:52;0.00;0.00;0.62;0.00;0.00;0.62;3.13;2.03;;;26.80;31.20;;;;;;2265699;61;20350;-52
2021/08/04 04:41:19;0.00;0.00;0.62;0.00;0.00;0.62;2.20;1.90;;;26.80;31.30;;;;;;2265847;61;20358;-53
2021/08/04 04:43:46;0.00;0.00;0.62;0.00;0.00;0.62;1.90;1.70;;;26.80;31.20;;;;;;2264834;61;20358;-58
2021/08/04 04:46:12;0.00;0.00;0.62;0.00;0.00;0.62;1.90;1.70;;;26.80;31.20;;;;;;2265760;61;20357;-56
2021/08/04 04:48:40;0.00;0.00;0.62;0.00;0.00;0.62;1.90;1.70;;;26.80;31.20;;;;;;2265523;61;20436;-54
2021/08/04 04:51:07;0.00;0.00;0.62;0.00;0.00;0.62;3.60;2.00;;;26.80;31.20;;;;;;2264608;61;20432;-58
2021/08/04 04:53:33;0.00;0.00;0.62;0.00;0.00;0.62;2.67;1.77;;;26.80;31.20;;;;;;2265415;61;20362;-56
2021/08/04 04:56:00;0.00;0.00;0.62;0.00;0.00;0.62;2.33;2.13;;;26.80;31.30;;;;;;2265585;61;20378;-58
2021/08/04 04:58:26;0.00;0.00;0.62;0.00;0.00;0.62;2.20;2.00;;;26.80;31.20;;;;;;2265376;61;20358;-55
2021/08/04 05:00:53;0.00;0.00;0.62;0.00;0.00;0.62;2.50;2.00;;;26.90;31.30;;;;;;2265194;61;20361;-55
2021/08/04 05:03:20;0.00;0.00;0.62;0.00;0.00;0.62;2.40;2.20;;;26.90;31.30;;;;;;2265444;61;20416;-58
2021/08/04 05:05:48;0.00;0.00;0.62;0.00;0.00;0.62;2.27;1.83;;;26.90;31.40;;;;;;2265338;61;20350;-56
2021/08/04 05:08:15;0.00;0.00;0.62;0.00;0.00;0.62;2.17;1.97;;;26.90;31.40;;;;;;2265260;61;20449;-57
2021/08/04 05:10:41;0.00;0.00;0.62;0.00;0.00;0.62;3.20;2.07;;;26.80;31.40;;;;;;2265452;61;20354;-59
2021/08/04 05:13:08;0.00;0.00;0.62;0.00;0.00;0.62;2.17;1.90;;;26.90;31.40;;;;;;2265242;61;20553;-54
2021/08/04 05:15:34;0.00;0.00;0.62;0.00;0.00;0.62;3.40;2.00;;;26.80;31.40;;;;;;2265206;61;20417;-57
2021/08/04 05:18:01;0.00;0.00;0.62;0.00;0.00;0.62;3.00;2.50;;;26.90;31.50;;;;;;2265674;61;20386;-56
2021/08/04 05:20:30;0.00;0.00;0.62;0.00;0.00;0.62;2.20;2.00;;;26.90;31.50;;;;;;2265183;61;20383;-59
2021/08/04 05:23:00;0.00;0.00;0.62;0.00;0.00;0.62;2.17;1.73;;;26.90;31.50;;;;;;2265037;61;20464;-57
2021/08/04 05:25:27;0.00;0.00;0.62;0.00;0.00;0.62;2.40;1.67;;;26.90;31.50;;;;;;2265125;61;20362;-54
2021/08/04 05:27:54;0.00;0.00;0.62;0.00;0.00;0.62;2.00;1.67;;;26.90;31.50;;;;;;2265275;61;20378;-54
2021/08/04 05:30:21;0.00;0.00;0.62;0.00;0.00;0.62;2.30;1.73;;;26.90;31.40;;;;;;2265130;61;20354;-59
2021/08/04 05:32:47;0.00;0.00;0.62;0.00;0.00;0.62;2.27;2.07;;;26.90;31.50;;;;;;2265555;61;20365;-56
2021/08/04 05:35:14;0.00;0.00;0.62;0.00;0.00;0.62;1.90;1.53;;;26.90;31.40;;;;;;2265140;61;20385;-60
2021/08/04 05:37:40;0.00;0.00;0.62;0.00;0.00;0.62;3.27;2.20;;;26.90;31.50;;;;;;2265348;61;20378;-57
2021/08/04 05:40:10;0.00;0.00;0.62;0.00;0.00;0.62;2.73;1.87;;;26.90;31.40;;;;;;2265459;61;20432;-57
2021/08/04 05:42:37;0.00;0.00;0.62;0.00;0.00;0.62;2.10;1.90;;;26.90;31.50;;;;;;2265093;61;20368;-55
2021/08/04 05:45:05;0.00;0.00;0.62;0.00;0.00;0.62;2.20;1.43;;;26.90;31.50;;;;;;2264761;61;20350;-56
2021/08/04 05:47:32;0.00;0.00;0.62;0.00;0.00;0.62;4.83;1.67;;;26.90;31.50;;;;;;2265451;61;20377;-54
2021/08/04 05:49:59;0.00;0.00;0.62;0.00;0.00;0.62;2.50;2.00;;;26.90;31.50;;;;;;2265077;61;20346;-59
2021/08/04 05:52:25;0.00;0.00;0.62;0.00;0.00;0.62;2.00;1.60;;;26.80;31.50;;;;;;2265244;61;20383;-56
2021/08/04 05:54:52;0.00;0.00;0.62;0.00;0.00;0.62;2.77;1.70;;;26.90;31.60;;;;;;2265480;61;20602;-54
2021/08/04 05:57:20;0.00;0.00;0.62;0.00;0.00;0.62;2.37;1.87;;;26.90;31.60;;;;;;2265172;61;20692;-59
2021/08/04 05:59:47;0.00;0.00;0.62;0.00;0.00;0.62;2.23;1.90;;;26.90;31.60;;;;;;2265209;61;20621;-55
2021/08/04 06:02:13;0.00;0.00;0.62;0.00;0.00;0.62;2.10;1.70;;;26.90;31.60;;;;;;2265290;61;20683;-53
2021/08/04 06:04:40;0.00;0.00;0.62;0.00;0.00;0.62;3.33;2.00;;;26.90;31.60;;;;;;2265863;61;20389;-58
2021/08/04 06:07:06;0.00;0.00;0.62;0.00;0.00;0.62;2.40;1.70;;;26.90;31.60;;;;;;2265818;61;20377;-54
2021/08/04 06:09:33;0.00;0.00;0.62;0.00;0.00;0.62;2.10;1.73;;;26.90;31.60;;;;;;2266104;61;20354;-56
2021/08/04 06:12:00;0.00;0.00;0.62;0.00;0.00;0.62;2.20;1.70;;;26.90;31.60;;;;;;2265791;61;20377;-58
2021/08/04 06:14:28;0.00;0.00;0.62;0.00;0.00;0.62;2.87;1.60;;;26.90;31.60;;;;;;2265816;61;20365;-57
2021/08/04 06:16:54;0.00;0.00;0.62;0.00;0.00;0.62;2.03;1.73;;;26.90;31.70;;;;;;2265892;61;20463;-57
2021/08/04 06:19:21;0.00;0.00;0.62;0.00;0.00;0.62;2.23;1.60;;;26.80;31.60;;;;;;2265920;61;20360;-56
2021/08/04 06:21:47;0.00;0.00;0.62;0.00;0.00;0.62;3.17;2.00;;;26.90;31.70;;;;;;2265640;61;20432;-56
2021/08/04 06:24:14;0.00;0.00;0.62;0.00;0.00;0.62;2.00;1.80;;;26.80;31.60;;;;;;2265816;61;20388;-53
2021/08/04 06:26:40;0.00;0.00;0.62;0.00;0.00;0.62;1.73;1.50;;;26.90;31.70;;;;;;2266002;61;20588;-57
2021/08/04 06:29:09;0.00;0.00;0.62;0.00;0.00;0.62;2.00;1.57;;;26.90;31.70;;;;;;2265753;61;20627;-52
2021/08/04 06:31:37;0.00;0.00;0.62;0.00;0.00;0.62;2.33;1.50;;;26.80;31.60;;;;;;2265878;61;20600;-56
2021/08/04 06:34:03;0.00;0.00;0.62;0.00;0.00;0.62;1.80;1.53;;;26.80;31.60;;;;;;2265939;61;20627;-59
2021/08/04 06:36:30;0.00;0.00;0.62;0.00;0.00;0.62;2.90;1.73;;;26.90;31.70;;;;;;2265678;61;20389;-56
2021/08/04 06:38:56;0.00;0.00;0.62;0.00;0.00;0.62;1.93;1.70;;;26.90;31.70;;;;;;2265989;61;20350;-55
2021/08/04 06:41:23;0.00;0.00;0.62;0.00;0.00;0.62;1.67;1.50;;;26.80;31.70;;;;;;2265673;61;20347;-54
2021/08/04 06:43:49;0.00;0.00;0.62;0.00;0.00;0.62;1.87;1.40;;;26.80;31.70;;;;;;2265487;61;20427;-57
2021/08/04 06:46:16;0.00;0.00;0.62;0.00;0.00;0.62;4.70;2.57;;;26.80;31.80;;;;;;2265538;61;20423;-56
2021/08/04 06:48:44;0.00;0.00;0.62;0.00;0.00;0.62;2.00;1.80;;;26.80;31.80;;;;;;2265853;61;20572;-57
2021/08/04 06:51:11;0.00;0.00;0.62;0.00;0.00;0.62;1.90;1.53;;;26.80;31.90;;;;;;2265583;61;20373;-54
2021/08/04 06:53:38;0.00;0.00;0.62;0.00;0.00;0.62;1.50;1.23;;;26.80;31.90;;;;;;2265873;61;20423;-53
2021/08/04 06:56:04;0.00;0.00;0.62;0.00;0.00;0.62;1.90;1.70;;;26.80;31.90;;;;;;2265728;61;20382;-56
2021/08/04 06:58:31;0.00;0.00;0.62;0.00;0.00;0.62;1.80;1.40;;;26.80;31.90;;;;;;2265564;61;20373;-57
2021/08/04 07:00:58;0.00;0.00;0.62;0.00;0.00;0.62;2.00;1.60;;;26.80;31.90;;;;;;2265808;61;20354;-57
2021/08/04 07:03:25;0.00;0.00;0.62;0.00;0.00;0.62;1.83;1.60;;;26.80;31.90;;;;;;2265599;61;20702;-55
2021/08/04 07:05:53;0.00;0.00;0.62;0.00;0.00;0.62;2.63;2.07;;;26.80;31.90;;;;;;2265629;61;20354;-52
2021/08/04 07:08:20;0.00;0.00;0.62;0.00;0.00;0.62;2.03;1.67;;;26.80;31.90;;;;;;2265898;61;20361;-56
2021/08/04 07:10:48;0.00;0.00;0.62;0.00;0.00;0.62;2.40;1.77;;;26.80;32.00;;;;;;2265623;61;20366;-56
2021/08/04 07:13:14;0.00;0.00;0.62;0.00;0.00;0.62;1.73;1.37;;;26.80;32.00;;;;;;2265532;61;20361;-58
2021/08/04 07:15:41;0.00;0.00;0.62;0.00;0.00;0.62;1.80;1.53;;;26.80;32.00;;;;;;2265800;61;20378;-57
2021/08/04 07:18:09;0.00;0.00;0.62;0.00;0.00;0.62;2.03;1.83;;;26.80;32.10;;;;;;2265670;61;20632;-58
2021/08/04 07:20:38;0.00;0.00;0.62;0.00;0.00;0.62;1.73;1.53;;;26.80;32.10;;;;;;2265373;61;20377;-58
2021/08/04 07:23:06;0.00;0.00;0.62;0.00;0.00;0.62;3.77;1.93;;;26.80;32.10;;;;;;2265704;61;20403;-58
2021/08/04 07:25:33;0.00;0.00;0.62;0.00;0.00;0.62;2.30;1.67;;;26.80;32.10;;;;;;2265707;61;20362;-57
2021/08/04 07:27:59;0.00;0.00;0.62;0.00;0.00;0.62;2.60;1.83;;;26.80;32.20;;;;;;2265597;61;20447;-56
2021/08/04 07:30:26;0.00;0.00;0.62;0.00;0.00;0.62;2.93;1.77;;;26.80;32.20;;;;;;2265841;61;20396;-58
2021/08/04 07:32:53;0.00;0.00;0.62;0.00;0.00;0.62;2.53;2.00;;;26.80;32.30;;;;;;2265919;61;20354;-54
2021/08/04 07:35:20;0.00;0.00;0.62;0.00;0.00;0.62;2.00;1.77;;;26.80;32.30;;;;;;2265379;61;20612;-56
2021/08/04 07:37:46;0.00;0.00;0.62;0.00;0.00;0.62;2.70;1.40;;;26.80;32.30;;;;;;2265955;61;20378;-56
2021/08/04 07:40:17;0.00;0.00;0.62;0.00;0.00;0.62;2.07;1.73;;;26.80;32.30;;;;;;2265650;61;20365;-58
2021/08/04 07:42:44;0.00;0.00;0.62;0.00;0.00;0.62;3.67;1.60;;;26.80;32.30;;;;;;2265402;61;20370;-57
2021/08/04 07:45:11;0.00;0.00;0.62;0.00;0.00;0.62;1.97;1.77;;;26.80;32.30;;;;;;2265800;61;20417;-56
2021/08/04 07:47:38;0.00;0.00;0.62;0.00;0.00;0.62;2.83;2.00;;;26.80;32.30;;;;;;2265796;61;20702;-57
2021/08/04 07:50:07;0.00;0.00;0.62;0.00;0.00;0.62;2.67;1.70;;;26.80;32.40;;;;;;2265314;61;20395;-56
2021/08/04 07:52:33;0.00;0.00;0.62;0.00;0.00;0.62;2.10;1.60;;;26.80;32.40;;;;;;2265906;61;20358;-55
2021/08/04 07:55:03;0.00;0.00;0.62;0.00;0.00;0.62;2.10;1.70;;;26.80;32.40;;;;;;2265635;61;20374;-58
2021/08/04 07:57:30;0.00;0.00;0.62;0.00;0.00;0.62;3.73;2.10;;;26.80;32.40;;;;;;2265370;61;20385;-54
2021/08/04 07:59:57;0.00;0.00;0.62;0.00;0.00;0.62;1.67;1.43;;;26.80;32.40;;;;;;2265728;61;20358;-57
2021/08/04 08:02:23;0.00;0.00;0.62;0.00;0.00;0.62;2.00;1.60;;;26.80;32.50;;;;;;2265538;61;20358;-58
2021/08/04 08:04:50;0.00;0.00;0.62;0.00;0.00;0.62;2.47;1.80;;;26.80;32.40;;;;;;2265258;61;20354;-56
2021/08/04 08:07:17;0.00;0.00;0.62;0.00;0.00;0.62;2.50;2.00;;;26.80;32.40;;;;;;2265742;61;20519;-54
2021/08/04 08:09:43;0.00;0.00;0.62;0.00;0.00;0.62;2.97;1.70;;;26.80;32.40;;;;;;2265717;61;20407;-58
2021/08/04 08:12:10;0.00;0.00;0.62;0.00;0.00;0.62;2.53;1.50;;;26.80;32.40;;;;;;2265154;61;20390;-59
2021/08/04 08:14:38;0.00;0.00;0.62;0.00;0.00;0.62;2.03;1.70;;;26.80;32.50;;;;;;2265787;61;20354;-58
2021/08/04 08:17:05;0.00;0.00;0.62;0.00;0.00;0.62;3.27;1.87;;;26.90;32.60;;;;;;2265793;61;20573;-57
2021/08/04 08:19:32;0.00;0.00;0.62;0.00;0.00;0.62;3.10;1.63;;;26.80;32.50;;;;;;2265201;61;20382;-56
2021/08/04 08:21:59;0.00;0.00;0.62;0.00;0.00;0.62;2.50;1.90;;;26.80;32.50;;;;;;2265569;61;20370;-57
2021/08/04 08:24:26;0.00;0.00;0.62;0.00;0.00;0.62;3.07;2.17;;;26.80;32.50;;;;;;2265472;61;20562;-51
2021/08/04 08:26:52;0.00;0.00;0.62;0.00;0.00;0.62;2.27;1.70;;;26.90;32.60;;;;;;2264916;61;20378;-56
2021/08/04 08:29:19;0.00;0.00;0.62;0.00;0.00;0.62;2.00;1.70;;;26.90;32.60;;;;;;2265639;61;20592;-58
2021/08/04 08:31:47;0.00;0.00;0.62;0.00;0.00;0.62;2.43;1.60;;;26.90;32.60;;;;;;2265513;61;20497;-57
2021/08/04 08:34:14;0.00;0.00;0.62;0.00;0.00;0.62;3.23;2.20;;;26.80;32.50;;;;;;2265148;61;20382;-57
2021/08/04 08:36:41;0.00;0.00;0.62;0.00;0.00;0.62;2.50;1.77;;;26.90;32.60;;;;;;2265500;61;20397;-54
2021/08/04 08:39:10;0.00;0.00;0.62;0.00;0.00;0.62;2.10;1.90;;;26.90;32.60;;;;;;2265645;61;20369;-57
2021/08/04 08:41:37;0.00;0.00;0.62;0.00;0.00;0.62;3.80;2.33;;;26.90;32.60;;;;;;2265065;61;20358;-57
2021/08/04 08:44:07;0.00;0.00;0.62;0.00;0.00;0.62;2.30;2.00;;;26.90;32.60;;;;;;2265449;61;20377;-56
2021/08/04 08:46:34;0.00;0.00;0.62;0.00;0.00;0.62;3.97;2.23;;;26.90;32.60;;;;;;2265564;61;20388;-56
2021/08/04 08:49:04;0.00;0.00;0.62;0.00;0.00;0.62;3.27;2.30;;;26.90;32.60;;;;;;2265128;61;20633;-54
2021/08/04 08:51:31;0.00;0.00;0.62;0.00;0.00;0.62;2.63;1.80;;;26.90;32.50;;;;;;2265364;61;20439;-56
2021/08/04 08:53:58;0.00;0.00;0.62;0.00;0.00;0.62;3.50;1.80;;;27.00;32.60;;;;;;2265621;61;20441;-58
2021/08/04 08:56:25;0.00;0.00;0.62;0.00;0.00;0.62;2.57;2.13;;;27.00;32.60;;;;;;2265030;61;20504;-54
2021/08/04 08:58:55;0.00;0.00;0.62;0.00;0.00;0.62;2.10;1.73;;;26.90;32.60;;;;;;2265552;61;20350;-58
2021/08/04 09:01:37;0.00;0.00;0.62;0.00;0.00;0.62;2.20;1.73;;;26.90;32.50;;;;;;2265635;61;20520;-58
2021/08/04 09:04:09;0.00;0.00;0.62;0.00;0.00;0.62;2.43;1.97;;;27.00;32.60;;;;;;2265059;61;20354;-56
2021/08/04 09:06:49;0.00;0.00;0.62;0.00;0.00;0.62;3.00;1.77;;;27.00;32.60;;;;;;2265601;61;20377;-54
2021/08/04 09:09:19;0.00;0.00;0.62;0.00;0.00;0.62;2.70;1.63;;;27.00;33.20;;;;;;2265392;61;20701;-56
2021/08/04 09:12:26;0.00;0.00;0.62;0.00;0.00;0.62;2.10;1.90;;;27.00;32.60;;;;;;2265257;61;20437;-58
2021/08/04 09:14:53;0.00;0.00;0.62;0.00;0.00;0.62;2.60;1.70;;;27.00;32.60;;;;;;2265568;61;20378;-56
2021/08/04 09:17:19;0.00;0.00;0.62;0.00;0.00;0.62;2.47;1.80;;;27.00;32.80;;;;;;2265195;61;20597;-54
2021/08/04 09:19:53;0.00;0.00;0.62;0.00;0.00;0.62;2.23;2.03;;;27.00;32.60;;;;;;2265220;61;20361;-54
2021/08/04 09:22:23;0.00;0.00;0.62;0.00;0.00;0.62;2.20;1.90;;;27.00;32.60;;;;;;2265342;61;20412;-57
2021/08/04 09:25:02;0.00;0.00;0.62;0.00;0.00;0.62;1.80;1.60;;;27.10;32.70;;;;;;2265228;61;20357;-58
2021/08/04 09:27:45;0.00;0.00;0.62;0.00;0.00;0.62;2.10;1.80;;;27.10;32.70;;;;;;2265550;61;20463;-57
2021/08/04 09:30:16;0.00;0.00;0.62;0.00;0.00;0.62;3.43;2.10;;;27.10;32.70;;;;;;2265419;61;20361;-55
2021/08/04 09:32:42;0.00;0.00;0.62;0.00;0.00;0.62;2.20;1.90;;;27.10;32.60;;;;;;2264827;61;20357;-57
2021/08/04 09:35:15;0.00;0.00;0.62;0.00;0.00;0.62;2.20;1.80;;;27.10;32.60;;;;;;2265446;61;20473;-54
2021/08/04 09:37:42;0.00;0.00;0.62;0.00;0.00;0.62;2.50;1.87;;;27.10;32.60;;;;;;2265256;61;20396;-58
2021/08/04 09:40:12;0.00;0.00;0.62;0.00;0.00;0.62;2.37;1.90;;;27.20;32.70;;;;;;2265506;61;20477;-51
2021/08/04 09:42:50;0.00;0.00;0.62;0.00;0.00;0.62;2.20;1.90;;;27.20;32.70;;;;;;2266164;61;20433;-58
2021/08/04 09:45:22;0.00;0.00;0.62;0.00;0.00;0.62;2.90;2.00;;;27.20;32.70;;;;;;2266252;61;20353;-56